ETD83 LIRF-EDDF
Flight info
| Callsign | ETD83 |
|---|---|
| Flight time | N/A |
| Altitude | 40000 |
| Route | SOVAN DCT AMTEL DCT BORMI DCT OZE DCT NAXAV DCT UNIMI L12 MOGTI Q163 OLASO/N0501F320 Q163 HAFUN/N0466F240 Q163 ETASA T163 SPESA SPESA5B |
| Aircraft | A35K/H-SDE2E3GHIJ3J4J5LM1ORWXY/LB1D1 |
Departure
| Time | 2026-02-17 12:31 |
|---|---|
| Airport | Rome–Fiumicino Leonardo da Vinci International Airport (LIRF) |
Arrival
| Time | N/A |
|---|---|
| Airport | Frankfurt Main Airport (EDDF) |
| Time | Latitude | Longitude | Altitude | Speed | Heading |
|---|---|---|---|---|---|
| 2026-02-17 11:44 | 41.79854 | 12.24650 | 20 ft | 0 kts | 160° |
| 2026-02-17 12:09 | 41.79854 | 12.24651 | 20 ft | 0 kts | 160° |
| 2026-02-17 12:12 | 41.79856 | 12.24650 | 24 ft | 1 kts | 160° |
| 2026-02-17 12:13 | 41.79872 | 12.24642 | 21 ft | 3 kts | 160° |
| 2026-02-17 12:13 | 41.79891 | 12.24633 | 24 ft | 3 kts | 160° |
| 2026-02-17 12:13 | 41.79909 | 12.24624 | 25 ft | 3 kts | 159° |
| 2026-02-17 12:13 | 41.79926 | 12.24612 | 24 ft | 3 kts | 135° |
| 2026-02-17 12:14 | 41.79936 | 12.24592 | 23 ft | 3 kts | 98° |
| 2026-02-17 12:14 | 41.79936 | 12.24567 | 24 ft | 3 kts | 73° |
| 2026-02-17 12:14 | 41.79933 | 12.24557 | 24 ft | 0 kts | 70° |
| 2026-02-17 12:15 | 41.79936 | 12.24566 | 24 ft | 1 kts | 70° |
| 2026-02-17 12:15 | 41.79943 | 12.24591 | 25 ft | 5 kts | 70° |
| 2026-02-17 12:15 | 41.79948 | 12.24610 | 23 ft | 0 kts | 70° |
| 2026-02-17 12:16 | 41.79947 | 12.24606 | 24 ft | 1 kts | 70° |
| 2026-02-17 12:16 | 41.79946 | 12.24603 | 24 ft | 1 kts | 70° |
| 2026-02-17 12:16 | 41.79944 | 12.24596 | 24 ft | 1 kts | 69° |
| 2026-02-17 12:16 | 41.79941 | 12.24586 | 24 ft | 1 kts | 69° |
| 2026-02-17 12:17 | 41.79938 | 12.24574 | 24 ft | 0 kts | 69° |
| 2026-02-17 12:17 | 41.79939 | 12.24577 | 24 ft | 0 kts | 69° |
| 2026-02-17 12:17 | 41.79938 | 12.24574 | 24 ft | 1 kts | 69° |
| 2026-02-17 12:17 | 41.79936 | 12.24568 | 24 ft | 1 kts | 70° |
| 2026-02-17 12:18 | 41.79935 | 12.24565 | 24 ft | 0 kts | 70° |
| 2026-02-17 12:18 | 41.79936 | 12.24565 | 24 ft | 0 kts | 70° |
| 2026-02-17 12:20 | 41.79937 | 12.24571 | 24 ft | 2 kts | 69° |
| 2026-02-17 12:20 | 41.79948 | 12.24610 | 23 ft | 6 kts | 69° |
| 2026-02-17 12:20 | 41.79968 | 12.24683 | 21 ft | 10 kts | 70° |
| 2026-02-17 12:20 | 41.79996 | 12.24770 | 21 ft | 10 kts | 54° |
| 2026-02-17 12:21 | 41.80059 | 12.24782 | 22 ft | 11 kts | 351° |
| 2026-02-17 12:21 | 41.80146 | 12.24775 | 20 ft | 14 kts | 3° |
| 2026-02-17 12:21 | 41.80204 | 12.24867 | 21 ft | 16 kts | 79° |
| 2026-02-17 12:21 | 41.80206 | 12.25030 | 20 ft | 19 kts | 84° |
| 2026-02-17 12:22 | 41.80246 | 12.25216 | 21 ft | 23 kts | 71° |
| 2026-02-17 12:22 | 41.80304 | 12.25425 | 23 ft | 25 kts | 69° |
| 2026-02-17 12:22 | 41.80363 | 12.25639 | 25 ft | 25 kts | 70° |
| 2026-02-17 12:23 | 41.80471 | 12.26030 | 23 ft | 24 kts | 70° |
| 2026-02-17 12:23 | 41.80530 | 12.26245 | 25 ft | 25 kts | 70° |
| 2026-02-17 12:23 | 41.80586 | 12.26449 | 25 ft | 22 kts | 70° |
| 2026-02-17 12:23 | 41.80638 | 12.26635 | 24 ft | 21 kts | 70° |
| 2026-02-17 12:24 | 41.80685 | 12.26807 | 21 ft | 20 kts | 70° |
| 2026-02-17 12:24 | 41.80722 | 12.26943 | 21 ft | 6 kts | 70° |
| 2026-02-17 12:24 | 41.80742 | 12.27013 | 20 ft | 10 kts | 65° |
| 2026-02-17 12:24 | 41.80799 | 12.27043 | 19 ft | 10 kts | 349° |
| 2026-02-17 12:25 | 41.80856 | 12.27018 | 19 ft | 5 kts | 341° |
| 2026-02-17 12:25 | 41.80865 | 12.27013 | 23 ft | 0 kts | 341° |
| 2026-02-17 12:27 | 41.80910 | 12.26992 | 19 ft | 7 kts | 341° |
| 2026-02-17 12:27 | 41.80952 | 12.26953 | 18 ft | 6 kts | 301° |
| 2026-02-17 12:27 | 41.80948 | 12.26897 | 21 ft | 7 kts | 254° |
| 2026-02-17 12:27 | 41.80940 | 12.26860 | 19 ft | 0 kts | 249° |
| 2026-02-17 12:31 | 41.80647 | 12.25805 | 29 ft | 157 kts | 249° |
| 2026-02-17 12:31 | 41.80191 | 12.24328 | 998 ft | 177 kts | 251° |
| 2026-02-17 12:31 | 41.79740 | 12.22761 | 2219 ft | 176 kts | 256° |
| 2026-02-17 12:31 | 41.79330 | 12.21244 | 2961 ft | 176 kts | 257° |
| 2026-02-17 12:32 | 41.79124 | 12.19564 | 3287 ft | 190 kts | 282° |
| 2026-02-17 12:32 | 41.79690 | 12.17988 | 3852 ft | 190 kts | 308° |
| 2026-02-17 12:32 | 41.80513 | 12.16597 | 4578 ft | 191 kts | 312° |
| 2026-02-17 12:32 | 41.81364 | 12.15221 | 5289 ft | 193 kts | 313° |
| 2026-02-17 12:33 | 41.82230 | 12.13818 | 5983 ft | 197 kts | 313° |
| 2026-02-17 12:33 | 41.83099 | 12.12387 | 6721 ft | 199 kts | 312° |
| 2026-02-17 12:33 | 41.83937 | 12.10909 | 7484 ft | 201 kts | 306° |
| 2026-02-17 12:33 | 41.84454 | 12.09126 | 8137 ft | 215 kts | 288° |
| 2026-02-17 12:34 | 41.84699 | 12.07032 | 8497 ft | 239 kts | 282° |
| 2026-02-17 12:34 | 41.84885 | 12.04721 | 8912 ft | 258 kts | 281° |
| 2026-02-17 12:34 | 41.85082 | 12.02294 | 9637 ft | 263 kts | 283° |
| 2026-02-17 12:35 | 41.86619 | 11.97796 | 10619 ft | 283 kts | 317° |
| 2026-02-17 12:35 | 41.88348 | 11.96425 | 10911 ft | 301 kts | 342° |
| 2026-02-17 12:35 | 41.90500 | 11.96213 | 11238 ft | 323 kts | 4° |
| 2026-02-17 12:35 | 41.92687 | 11.97151 | 11781 ft | 337 kts | 19° |
| 2026-02-17 12:36 | 41.94855 | 11.98393 | 12483 ft | 340 kts | 18° |
| 2026-02-17 12:36 | 41.97067 | 11.99560 | 13173 ft | 343 kts | 15° |
| 2026-02-17 12:36 | 41.99321 | 12.00623 | 13854 ft | 344 kts | 13° |
| 2026-02-17 12:36 | 42.01618 | 12.01572 | 14510 ft | 345 kts | 11° |
| 2026-02-17 12:37 | 42.03938 | 12.02394 | 15213 ft | 345 kts | 9° |
| 2026-02-17 12:37 | 42.06283 | 12.03083 | 15887 ft | 345 kts | 6° |
| 2026-02-17 12:37 | 42.08648 | 12.03625 | 16560 ft | 345 kts | 4° |